sensor_id;sensor_type;location;lat;lon;timestamp;P1;durP1;ratioP1;P2;durP2;ratioP2
22924;SDS011;11628;51.072;3.712;2023-04-06T00:01:48;20.77;;;14.55;;
22924;SDS011;11628;51.072;3.712;2023-04-06T00:04:15;21.52;;;16.08;;
22924;SDS011;11628;51.072;3.712;2023-04-06T00:06:41;21.42;;;15.55;;
22924;SDS011;11628;51.072;3.712;2023-04-06T00:09:07;23.55;;;15.82;;
22924;SDS011;11628;51.072;3.712;2023-04-06T00:11:33;24.90;;;16.88;;
22924;SDS011;11628;51.072;3.712;2023-04-06T00:13:59;25.38;;;16.20;;
22924;SDS011;11628;51.072;3.712;2023-04-06T00:16:25;21.85;;;15.40;;
22924;SDS011;11628;51.072;3.712;2023-04-06T00:18:51;21.77;;;16.00;;
22924;SDS011;11628;51.072;3.712;2023-04-06T00:21:17;23.58;;;16.17;;
22924;SDS011;11628;51.072;3.712;2023-04-06T00:23:43;26.85;;;16.70;;
22924;SDS011;11628;51.072;3.712;2023-04-06T00:26:08;25.55;;;17.25;;
22924;SDS011;11628;51.072;3.712;2023-04-06T00:28:36;25.15;;;17.25;;
22924;SDS011;11628;51.072;3.712;2023-04-06T00:31:02;27.15;;;18.33;;
22924;SDS011;11628;51.072;3.712;2023-04-06T00:33:28;21.80;;;17.30;;
22924;SDS011;11628;51.072;3.712;2023-04-06T00:35:54;27.67;;;19.30;;
22924;SDS011;11628;51.072;3.712;2023-04-06T00:38:20;27.15;;;18.10;;
22924;SDS011;11628;51.072;3.712;2023-04-06T00:40:46;25.67;;;18.60;;
22924;SDS011;11628;51.072;3.712;2023-04-06T00:43:12;25.73;;;19.00;;
22924;SDS011;11628;51.072;3.712;2023-04-06T00:45:39;25.10;;;18.67;;
22924;SDS011;11628;51.072;3.712;2023-04-06T00:48:06;25.30;;;17.98;;
22924;SDS011;11628;51.072;3.712;2023-04-06T00:50:33;26.60;;;18.50;;
22924;SDS011;11628;51.072;3.712;2023-04-06T00:52:59;28.48;;;18.55;;
22924;SDS011;11628;51.072;3.712;2023-04-06T00:55:28;25.65;;;18.55;;
22924;SDS011;11628;51.072;3.712;2023-04-06T00:57:55;25.45;;;17.67;;
22924;SDS011;11628;51.072;3.712;2023-04-06T01:00:23;28.75;;;19.70;;
22924;SDS011;11628;51.072;3.712;2023-04-06T01:02:49;23.30;;;18.13;;
22924;SDS011;11628;51.072;3.712;2023-04-06T01:05:15;26.42;;;18.83;;
22924;SDS011;11628;51.072;3.712;2023-04-06T01:07:41;27.98;;;20.63;;
22924;SDS011;11628;51.072;3.712;2023-04-06T01:10:07;28.00;;;19.58;;
22924;SDS011;11628;51.072;3.712;2023-04-06T01:12:33;27.60;;;19.88;;
22924;SDS011;11628;51.072;3.712;2023-04-06T01:14:59;29.67;;;21.48;;
22924;SDS011;11628;51.072;3.712;2023-04-06T01:17:25;30.30;;;21.38;;
22924;SDS011;11628;51.072;3.712;2023-04-06T01:19:50;28.40;;;21.80;;
22924;SDS011;11628;51.072;3.712;2023-04-06T01:22:18;32.85;;;23.38;;
22924;SDS011;11628;51.072;3.712;2023-04-06T01:24:45;33.22;;;22.55;;
22924;SDS011;11628;51.072;3.712;2023-04-06T01:27:11;32.13;;;22.85;;
22924;SDS011;11628;51.072;3.712;2023-04-06T01:29:37;33.28;;;22.45;;
22924;SDS011;11628;51.072;3.712;2023-04-06T01:32:06;34.00;;;24.13;;
22924;SDS011;11628;51.072;3.712;2023-04-06T01:34:32;32.88;;;23.15;;
22924;SDS011;11628;51.072;3.712;2023-04-06T01:36:58;34.63;;;24.27;;
22924;SDS011;11628;51.072;3.712;2023-04-06T01:39:24;36.22;;;24.98;;
22924;SDS011;11628;51.072;3.712;2023-04-06T01:41:50;33.08;;;24.88;;
22924;SDS011;11628;51.072;3.712;2023-04-06T01:44:16;36.67;;;24.30;;
22924;SDS011;11628;51.072;3.712;2023-04-06T01:46:43;32.22;;;23.50;;
22924;SDS011;11628;51.072;3.712;2023-04-06T01:49:10;36.65;;;24.67;;
22924;SDS011;11628;51.072;3.712;2023-04-06T01:51:37;33.13;;;24.90;;
22924;SDS011;11628;51.072;3.712;2023-04-06T01:54:03;35.63;;;24.75;;
22924;SDS011;11628;51.072;3.712;2023-04-06T01:56:29;33.33;;;24.95;;
22924;SDS011;11628;51.072;3.712;2023-04-06T01:58:54;36.38;;;24.90;;
22924;SDS011;11628;51.072;3.712;2023-04-06T02:01:21;36.58;;;26.05;;
22924;SDS011;11628;51.072;3.712;2023-04-06T02:03:46;38.42;;;26.88;;
22924;SDS011;11628;51.072;3.712;2023-04-06T02:06:12;37.25;;;26.75;;
22924;SDS011;11628;51.072;3.712;2023-04-06T02:08:38;36.42;;;26.48;;
22924;SDS011;11628;51.072;3.712;2023-04-06T02:11:04;35.42;;;26.00;;
22924;SDS011;11628;51.072;3.712;2023-04-06T02:13:30;31.95;;;25.35;;
22924;SDS011;11628;51.072;3.712;2023-04-06T02:15:55;35.60;;;26.20;;
22924;SDS011;11628;51.072;3.712;2023-04-06T02:18:22;37.38;;;26.30;;
22924;SDS011;11628;51.072;3.712;2023-04-06T02:20:48;37.85;;;27.48;;
22924;SDS011;11628;51.072;3.712;2023-04-06T02:23:13;40.30;;;27.95;;
22924;SDS011;11628;51.072;3.712;2023-04-06T02:25:39;38.78;;;27.85;;
22924;SDS011;11628;51.072;3.712;2023-04-06T02:28:05;39.97;;;27.83;;
22924;SDS011;11628;51.072;3.712;2023-04-06T02:30:31;38.70;;;26.83;;
22924;SDS011;11628;51.072;3.712;2023-04-06T02:32:58;38.63;;;26.80;;
22924;SDS011;11628;51.072;3.712;2023-04-06T02:35:25;39.45;;;27.40;;
22924;SDS011;11628;51.072;3.712;2023-04-06T02:37:50;39.58;;;28.02;;
22924;SDS011;11628;51.072;3.712;2023-04-06T02:40:16;40.03;;;28.70;;
22924;SDS011;11628;51.072;3.712;2023-04-06T02:42:42;41.50;;;29.05;;
22924;SDS011;11628;51.072;3.712;2023-04-06T02:45:08;39.75;;;28.25;;
22924;SDS011;11628;51.072;3.712;2023-04-06T02:47:33;38.92;;;29.45;;
22924;SDS011;11628;51.072;3.712;2023-04-06T02:49:59;41.00;;;28.38;;
22924;SDS011;11628;51.072;3.712;2023-04-06T02:52:25;42.83;;;29.58;;
22924;SDS011;11628;51.072;3.712;2023-04-06T02:54:51;40.72;;;29.13;;
22924;SDS011;11628;51.072;3.712;2023-04-06T02:57:17;42.92;;;29.65;;
22924;SDS011;11628;51.072;3.712;2023-04-06T02:59:43;40.00;;;29.27;;
22924;SDS011;11628;51.072;3.712;2023-04-06T03:02:08;44.38;;;31.55;;
22924;SDS011;11628;51.072;3.712;2023-04-06T03:04:35;43.22;;;30.52;;
22924;SDS011;11628;51.072;3.712;2023-04-06T03:07:00;41.70;;;31.08;;
22924;SDS011;11628;51.072;3.712;2023-04-06T03:09:26;41.50;;;29.70;;
22924;SDS011;11628;51.072;3.712;2023-04-06T03:11:52;47.25;;;31.85;;
22924;SDS011;11628;51.072;3.712;2023-04-06T03:14:18;46.25;;;31.02;;
22924;SDS011;11628;51.072;3.712;2023-04-06T03:16:47;45.13;;;31.75;;
22924;SDS011;11628;51.072;3.712;2023-04-06T03:19:13;46.03;;;30.58;;
22924;SDS011;11628;51.072;3.712;2023-04-06T03:21:39;42.85;;;31.10;;
22924;SDS011;11628;51.072;3.712;2023-04-06T03:24:06;45.85;;;30.77;;
22924;SDS011;11628;51.072;3.712;2023-04-06T03:26:33;47.33;;;30.52;;
22924;SDS011;11628;51.072;3.712;2023-04-06T03:28:59;46.63;;;31.50;;
22924;SDS011;11628;51.072;3.712;2023-04-06T03:31:25;45.65;;;30.55;;
22924;SDS011;11628;51.072;3.712;2023-04-06T03:33:51;45.75;;;30.70;;
22924;SDS011;11628;51.072;3.712;2023-04-06T03:36:17;43.13;;;28.85;;
22924;SDS011;11628;51.072;3.712;2023-04-06T03:38:43;43.28;;;29.73;;
22924;SDS011;11628;51.072;3.712;2023-04-06T03:41:09;42.92;;;29.45;;
22924;SDS011;11628;51.072;3.712;2023-04-06T03:43:35;46.55;;;30.55;;
22924;SDS011;11628;51.072;3.712;2023-04-06T03:46:00;44.58;;;29.42;;
22924;SDS011;11628;51.072;3.712;2023-04-06T03:48:26;42.60;;;29.38;;
22924;SDS011;11628;51.072;3.712;2023-04-06T03:50:52;44.33;;;29.00;;
22924;SDS011;11628;51.072;3.712;2023-04-06T03:53:18;42.88;;;29.05;;
22924;SDS011;11628;51.072;3.712;2023-04-06T03:55:43;42.22;;;28.17;;
22924;SDS011;11628;51.072;3.712;2023-04-06T03:58:09;41.88;;;28.42;;
22924;SDS011;11628;51.072;3.712;2023-04-06T04:00:35;40.75;;;28.15;;
22924;SDS011;11628;51.072;3.712;2023-04-06T04:03:01;39.10;;;28.02;;
22924;SDS011;11628;51.072;3.712;2023-04-06T04:05:27;44.67;;;28.05;;
22924;SDS011;11628;51.072;3.712;2023-04-06T04:07:53;41.38;;;28.50;;
22924;SDS011;11628;51.072;3.712;2023-04-06T04:10:19;40.28;;;28.50;;
22924;SDS011;11628;51.072;3.712;2023-04-06T04:12:45;40.17;;;27.83;;
22924;SDS011;11628;51.072;3.712;2023-04-06T04:15:10;43.30;;;28.23;;
22924;SDS011;11628;51.072;3.712;2023-04-06T04:17:36;42.47;;;28.10;;
22924;SDS011;11628;51.072;3.712;2023-04-06T04:20:02;39.75;;;27.45;;
22924;SDS011;11628;51.072;3.712;2023-04-06T04:22:28;42.38;;;28.40;;
22924;SDS011;11628;51.072;3.712;2023-04-06T04:24:53;42.70;;;27.88;;
22924;SDS011;11628;51.072;3.712;2023-04-06T04:27:19;44.15;;;28.02;;
22924;SDS011;11628;51.072;3.712;2023-04-06T04:29:45;41.17;;;28.13;;
22924;SDS011;11628;51.072;3.712;2023-04-06T04:32:11;40.35;;;28.65;;
22924;SDS011;11628;51.072;3.712;2023-04-06T04:34:37;43.45;;;28.55;;
22924;SDS011;11628;51.072;3.712;2023-04-06T04:37:05;40.88;;;28.85;;
22924;SDS011;11628;51.072;3.712;2023-04-06T04:39:31;40.75;;;27.40;;
22924;SDS011;11628;51.072;3.712;2023-04-06T04:41:57;37.90;;;26.77;;
22924;SDS011;11628;51.072;3.712;2023-04-06T04:44:23;41.30;;;26.73;;
22924;SDS011;11628;51.072;3.712;2023-04-06T04:46:48;38.50;;;26.35;;
22924;SDS011;11628;51.072;3.712;2023-04-06T04:49:14;38.97;;;28.38;;
22924;SDS011;11628;51.072;3.712;2023-04-06T04:51:40;39.45;;;27.65;;
22924;SDS011;11628;51.072;3.712;2023-04-06T04:54:05;37.13;;;27.48;;
22924;SDS011;11628;51.072;3.712;2023-04-06T04:56:31;38.35;;;28.10;;
22924;SDS011;11628;51.072;3.712;2023-04-06T04:58:57;41.28;;;27.70;;
22924;SDS011;11628;51.072;3.712;2023-04-06T05:01:23;34.53;;;25.67;;
22924;SDS011;11628;51.072;3.712;2023-04-06T05:03:49;37.10;;;26.00;;
22924;SDS011;11628;51.072;3.712;2023-04-06T05:06:15;39.10;;;26.35;;
22924;SDS011;11628;51.072;3.712;2023-04-06T05:08:41;39.97;;;27.98;;
22924;SDS011;11628;51.072;3.712;2023-04-06T05:11:07;38.92;;;26.55;;
22924;SDS011;11628;51.072;3.712;2023-04-06T05:13:34;37.63;;;26.55;;
22924;SDS011;11628;51.072;3.712;2023-04-06T05:15:59;36.97;;;25.27;;
22924;SDS011;11628;51.072;3.712;2023-04-06T05:18:25;40.55;;;27.27;;
22924;SDS011;11628;51.072;3.712;2023-04-06T05:20:51;38.72;;;27.10;;
22924;SDS011;11628;51.072;3.712;2023-04-06T05:23:17;36.28;;;25.13;;
22924;SDS011;11628;51.072;3.712;2023-04-06T05:25:42;38.05;;;27.60;;
22924;SDS011;11628;51.072;3.712;2023-04-06T05:28:08;35.40;;;26.85;;
22924;SDS011;11628;51.072;3.712;2023-04-06T05:30:34;34.53;;;26.65;;
22924;SDS011;11628;51.072;3.712;2023-04-06T05:33:00;36.67;;;26.55;;
22924;SDS011;11628;51.072;3.712;2023-04-06T05:35:27;34.97;;;25.88;;
22924;SDS011;11628;51.072;3.712;2023-04-06T05:37:52;31.02;;;24.90;;
22924;SDS011;11628;51.072;3.712;2023-04-06T05:40:18;34.10;;;24.92;;
22924;SDS011;11628;51.072;3.712;2023-04-06T05:42:44;38.03;;;26.48;;
22924;SDS011;11628;51.072;3.712;2023-04-06T05:45:10;33.40;;;24.00;;
22924;SDS011;11628;51.072;3.712;2023-04-06T05:47:42;36.80;;;26.40;;
22924;SDS011;11628;51.072;3.712;2023-04-06T05:50:09;31.80;;;24.30;;
22924;SDS011;11628;51.072;3.712;2023-04-06T05:52:35;34.63;;;24.58;;
22924;SDS011;11628;51.072;3.712;2023-04-06T05:55:02;34.85;;;24.98;;
22924;SDS011;11628;51.072;3.712;2023-04-06T05:57:28;32.38;;;24.58;;
22924;SDS011;11628;51.072;3.712;2023-04-06T05:59:54;33.83;;;23.85;;
22924;SDS011;11628;51.072;3.712;2023-04-06T06:02:20;33.30;;;24.38;;
22924;SDS011;11628;51.072;3.712;2023-04-06T06:04:46;33.35;;;24.73;;
22924;SDS011;11628;51.072;3.712;2023-04-06T06:07:12;34.25;;;24.98;;
22924;SDS011;11628;51.072;3.712;2023-04-06T06:09:39;35.30;;;25.88;;
22924;SDS011;11628;51.072;3.712;2023-04-06T06:12:05;35.75;;;24.00;;
22924;SDS011;11628;51.072;3.712;2023-04-06T06:14:30;34.25;;;23.92;;
22924;SDS011;11628;51.072;3.712;2023-04-06T06:16:56;30.75;;;23.15;;
22924;SDS011;11628;51.072;3.712;2023-04-06T06:19:22;30.88;;;21.90;;
22924;SDS011;11628;51.072;3.712;2023-04-06T06:21:48;30.77;;;20.67;;
22924;SDS011;11628;51.072;3.712;2023-04-06T06:24:13;25.13;;;17.73;;
22924;SDS011;11628;51.072;3.712;2023-04-06T06:26:39;25.42;;;17.73;;
22924;SDS011;11628;51.072;3.712;2023-04-06T06:29:05;25.42;;;17.08;;
22924;SDS011;11628;51.072;3.712;2023-04-06T06:31:32;23.35;;;16.02;;
22924;SDS011;11628;51.072;3.712;2023-04-06T06:33:58;21.55;;;16.10;;
22924;SDS011;11628;51.072;3.712;2023-04-06T06:36:23;25.77;;;18.05;;
22924;SDS011;11628;51.072;3.712;2023-04-06T06:38:50;24.10;;;16.73;;
22924;SDS011;11628;51.072;3.712;2023-04-06T06:41:16;24.13;;;16.48;;
22924;SDS011;11628;51.072;3.712;2023-04-06T06:43:42;24.83;;;14.68;;
22924;SDS011;11628;51.072;3.712;2023-04-06T06:46:08;20.50;;;14.52;;
22924;SDS011;11628;51.072;3.712;2023-04-06T06:48:34;21.33;;;15.00;;
22924;SDS011;11628;51.072;3.712;2023-04-06T06:50:59;22.80;;;15.18;;
22924;SDS011;11628;51.072;3.712;2023-04-06T06:53:25;25.90;;;16.67;;
22924;SDS011;11628;51.072;3.712;2023-04-06T06:55:51;20.38;;;14.55;;
22924;SDS011;11628;51.072;3.712;2023-04-06T06:58:20;22.27;;;15.88;;
22924;SDS011;11628;51.072;3.712;2023-04-06T07:00:45;19.52;;;14.05;;
22924;SDS011;11628;51.072;3.712;2023-04-06T07:03:11;20.98;;;15.60;;
22924;SDS011;11628;51.072;3.712;2023-04-06T07:05:37;21.65;;;13.57;;
22924;SDS011;11628;51.072;3.712;2023-04-06T07:08:03;18.58;;;13.80;;
22924;SDS011;11628;51.072;3.712;2023-04-06T07:10:29;21.05;;;14.35;;
22924;SDS011;11628;51.072;3.712;2023-04-06T07:12:55;20.58;;;13.43;;
22924;SDS011;11628;51.072;3.712;2023-04-06T07:15:21;17.17;;;11.65;;
22924;SDS011;11628;51.072;3.712;2023-04-06T07:17:48;15.95;;;11.80;;
22924;SDS011;11628;51.072;3.712;2023-04-06T07:20:14;20.90;;;12.80;;
22924;SDS011;11628;51.072;3.712;2023-04-06T07:22:42;19.52;;;12.50;;
22924;SDS011;11628;51.072;3.712;2023-04-06T07:25:09;18.75;;;12.25;;
22924;SDS011;11628;51.072;3.712;2023-04-06T07:27:35;15.70;;;12.07;;
22924;SDS011;11628;51.072;3.712;2023-04-06T07:30:01;18.17;;;12.38;;
22924;SDS011;11628;51.072;3.712;2023-04-06T07:32:27;17.17;;;12.10;;
22924;SDS011;11628;51.072;3.712;2023-04-06T07:34:52;16.55;;;11.43;;
22924;SDS011;11628;51.072;3.712;2023-04-06T07:37:18;15.15;;;11.02;;
22924;SDS011;11628;51.072;3.712;2023-04-06T07:39:44;17.40;;;11.30;;
22924;SDS011;11628;51.072;3.712;2023-04-06T07:42:10;16.20;;;11.60;;
22924;SDS011;11628;51.072;3.712;2023-04-06T07:44:36;15.55;;;10.65;;
22924;SDS011;11628;51.072;3.712;2023-04-06T07:47:01;19.20;;;13.05;;
22924;SDS011;11628;51.072;3.712;2023-04-06T07:49:27;17.98;;;12.13;;
22924;SDS011;11628;51.072;3.712;2023-04-06T07:51:53;16.73;;;11.90;;
22924;SDS011;11628;51.072;3.712;2023-04-06T07:54:19;16.20;;;11.48;;
22924;SDS011;11628;51.072;3.712;2023-04-06T07:56:45;17.27;;;12.35;;
22924;SDS011;11628;51.072;3.712;2023-04-06T07:59:11;20.75;;;12.50;;
22924;SDS011;11628;51.072;3.712;2023-04-06T08:01:36;19.75;;;13.13;;
22924;SDS011;11628;51.072;3.712;2023-04-06T08:04:02;22.23;;;14.02;;
22924;SDS011;11628;51.072;3.712;2023-04-06T08:06:28;16.67;;;12.57;;
22924;SDS011;11628;51.072;3.712;2023-04-06T08:08:54;20.05;;;13.27;;
22924;SDS011;11628;51.072;3.712;2023-04-06T08:11:20;20.33;;;13.32;;
22924;SDS011;11628;51.072;3.712;2023-04-06T08:13:46;21.77;;;15.00;;
22924;SDS011;11628;51.072;3.712;2023-04-06T08:16:12;21.02;;;14.05;;
22924;SDS011;11628;51.072;3.712;2023-04-06T08:18:38;21.23;;;14.90;;
22924;SDS011;11628;51.072;3.712;2023-04-06T08:21:05;17.38;;;12.80;;
22924;SDS011;11628;51.072;3.712;2023-04-06T08:23:31;21.65;;;14.10;;
22924;SDS011;11628;51.072;3.712;2023-04-06T08:25:56;24.05;;;14.77;;
22924;SDS011;11628;51.072;3.712;2023-04-06T08:28:22;20.58;;;14.48;;
22924;SDS011;11628;51.072;3.712;2023-04-06T08:30:48;23.13;;;16.75;;
22924;SDS011;11628;51.072;3.712;2023-04-06T08:33:14;23.85;;;17.05;;
22924;SDS011;11628;51.072;3.712;2023-04-06T08:35:40;24.05;;;16.60;;
22924;SDS011;11628;51.072;3.712;2023-04-06T08:38:06;24.05;;;15.98;;
22924;SDS011;11628;51.072;3.712;2023-04-06T08:40:36;26.27;;;16.60;;
22924;SDS011;11628;51.072;3.712;2023-04-06T08:43:09;24.23;;;16.75;;
22924;SDS011;11628;51.072;3.712;2023-04-06T08:45:40;23.60;;;16.05;;
22924;SDS011;11628;51.072;3.712;2023-04-06T08:48:06;24.80;;;16.80;;
22924;SDS011;11628;51.072;3.712;2023-04-06T08:50:33;24.20;;;16.77;;
22924;SDS011;11628;51.072;3.712;2023-04-06T08:53:00;25.73;;;16.63;;
22924;SDS011;11628;51.072;3.712;2023-04-06T08:55:26;25.70;;;17.60;;
22924;SDS011;11628;51.072;3.712;2023-04-06T08:57:52;29.38;;;18.10;;
22924;SDS011;11628;51.072;3.712;2023-04-06T09:00:20;25.85;;;17.30;;
22924;SDS011;11628;51.072;3.712;2023-04-06T09:02:47;27.00;;;17.65;;
22924;SDS011;11628;51.072;3.712;2023-04-06T09:05:14;26.33;;;18.75;;
22924;SDS011;11628;51.072;3.712;2023-04-06T09:07:41;27.58;;;19.73;;
22924;SDS011;11628;51.072;3.712;2023-04-06T09:10:07;34.55;;;19.90;;
22924;SDS011;11628;51.072;3.712;2023-04-06T09:12:34;28.60;;;18.92;;
22924;SDS011;11628;51.072;3.712;2023-04-06T09:15:00;29.65;;;19.77;;
22924;SDS011;11628;51.072;3.712;2023-04-06T09:17:30;28.27;;;20.13;;
22924;SDS011;11628;51.072;3.712;2023-04-06T09:19:59;30.05;;;19.15;;
22924;SDS011;11628;51.072;3.712;2023-04-06T09:22:37;27.65;;;18.70;;
22924;SDS011;11628;51.072;3.712;2023-04-06T09:25:04;27.40;;;18.13;;
22924;SDS011;11628;51.072;3.712;2023-04-06T09:27:34;28.25;;;19.10;;
22924;SDS011;11628;51.072;3.712;2023-04-06T09:32:31;29.08;;;19.50;;
22924;SDS011;11628;51.072;3.712;2023-04-06T09:35:07;29.15;;;18.48;;
22924;SDS011;11628;51.072;3.712;2023-04-06T09:37:34;29.52;;;20.25;;
22924;SDS011;11628;51.072;3.712;2023-04-06T09:40:04;32.45;;;20.13;;
22924;SDS011;11628;51.072;3.712;2023-04-06T09:42:31;29.15;;;19.65;;
22924;SDS011;11628;51.072;3.712;2023-04-06T09:44:57;25.85;;;18.52;;
22924;SDS011;11628;51.072;3.712;2023-04-06T09:47:23;30.17;;;19.23;;
22924;SDS011;11628;51.072;3.712;2023-04-06T09:49:52;27.25;;;19.33;;
22924;SDS011;11628;51.072;3.712;2023-04-06T09:52:26;30.75;;;20.77;;
22924;SDS011;11628;51.072;3.712;2023-04-06T09:54:58;30.35;;;20.50;;
22924;SDS011;11628;51.072;3.712;2023-04-06T09:57:49;31.40;;;21.23;;
22924;SDS011;11628;51.072;3.712;2023-04-06T10:03:31;31.77;;;21.13;;
22924;SDS011;11628;51.072;3.712;2023-04-06T10:06:00;32.28;;;22.75;;
22924;SDS011;11628;51.072;3.712;2023-04-06T10:08:30;28.55;;;20.00;;
22924;SDS011;11628;51.072;3.712;2023-04-06T10:11:00;29.38;;;20.95;;
22924;SDS011;11628;51.072;3.712;2023-04-06T10:13:27;33.25;;;21.08;;
22924;SDS011;11628;51.072;3.712;2023-04-06T10:15:54;28.90;;;20.27;;
22924;SDS011;11628;51.072;3.712;2023-04-06T10:18:21;34.28;;;21.30;;
22924;SDS011;11628;51.072;3.712;2023-04-06T10:20:51;28.85;;;21.33;;
22924;SDS011;11628;51.072;3.712;2023-04-06T10:25:55;30.27;;;20.23;;
22924;SDS011;11628;51.072;3.712;2023-04-06T10:28:22;28.00;;;19.95;;
22924;SDS011;11628;51.072;3.712;2023-04-06T10:30:49;26.48;;;20.10;;
22924;SDS011;11628;51.072;3.712;2023-04-06T10:33:21;30.27;;;20.73;;
22924;SDS011;11628;51.072;3.712;2023-04-06T10:35:47;29.13;;;20.27;;
22924;SDS011;11628;51.072;3.712;2023-04-06T10:38:12;28.17;;;21.20;;
22924;SDS011;11628;51.072;3.712;2023-04-06T10:40:41;28.27;;;21.42;;
22924;SDS011;11628;51.072;3.712;2023-04-06T10:43:12;24.48;;;19.25;;
22924;SDS011;11628;51.072;3.712;2023-04-06T10:45:39;26.40;;;19.80;;
22924;SDS011;11628;51.072;3.712;2023-04-06T10:48:36;28.70;;;20.42;;
22924;SDS011;11628;51.072;3.712;2023-04-06T10:51:09;25.08;;;19.05;;
22924;SDS011;11628;51.072;3.712;2023-04-06T10:53:38;24.30;;;19.25;;
22924;SDS011;11628;51.072;3.712;2023-04-06T10:56:12;25.67;;;19.13;;
22924;SDS011;11628;51.072;3.712;2023-04-06T10:58:46;22.15;;;17.30;;
22924;SDS011;11628;51.072;3.712;2023-04-06T11:01:14;23.02;;;18.00;;
22924;SDS011;11628;51.072;3.712;2023-04-06T11:03:45;23.42;;;18.27;;
22924;SDS011;11628;51.072;3.712;2023-04-06T11:06:27;24.40;;;18.45;;
22924;SDS011;11628;51.072;3.712;2023-04-06T11:08:56;25.17;;;18.95;;
22924;SDS011;11628;51.072;3.712;2023-04-06T11:11:23;24.50;;;19.02;;
22924;SDS011;11628;51.072;3.712;2023-04-06T11:16:21;24.77;;;18.90;;
22924;SDS011;11628;51.072;3.712;2023-04-06T11:21:45;23.33;;;16.67;;
22924;SDS011;11628;51.072;3.712;2023-04-06T11:24:13;23.73;;;17.73;;
22924;SDS011;11628;51.072;3.712;2023-04-06T11:26:48;21.05;;;17.50;;
22924;SDS011;11628;51.072;3.712;2023-04-06T11:29:20;24.05;;;17.08;;
22924;SDS011;11628;51.072;3.712;2023-04-06T11:32:03;25.02;;;18.75;;
22924;SDS011;11628;51.072;3.712;2023-04-06T11:34:35;23.42;;;17.65;;
22924;SDS011;11628;51.072;3.712;2023-04-06T11:37:03;19.30;;;15.13;;
22924;SDS011;11628;51.072;3.712;2023-04-06T11:39:40;19.77;;;14.65;;
22924;SDS011;11628;51.072;3.712;2023-04-06T11:42:26;18.95;;;14.52;;
22924;SDS011;11628;51.072;3.712;2023-04-06T11:44:54;20.38;;;15.35;;
22924;SDS011;11628;51.072;3.712;2023-04-06T11:47:28;17.65;;;14.93;;
22924;SDS011;11628;51.072;3.712;2023-04-06T11:49:55;21.67;;;15.63;;
22924;SDS011;11628;51.072;3.712;2023-04-06T11:52:25;19.98;;;16.70;;
22924;SDS011;11628;51.072;3.712;2023-04-06T11:54:52;27.27;;;17.52;;
22924;SDS011;11628;51.072;3.712;2023-04-06T11:57:22;22.67;;;17.70;;
22924;SDS011;11628;51.072;3.712;2023-04-06T11:59:50;23.38;;;16.33;;
22924;SDS011;11628;51.072;3.712;2023-04-06T12:02:20;25.42;;;18.42;;
22924;SDS011;11628;51.072;3.712;2023-04-06T12:04:46;22.30;;;17.70;;
22924;SDS011;11628;51.072;3.712;2023-04-06T12:07:12;23.77;;;18.83;;
22924;SDS011;11628;51.072;3.712;2023-04-06T12:09:37;27.35;;;21.27;;
22924;SDS011;11628;51.072;3.712;2023-04-06T12:12:03;26.67;;;20.38;;
22924;SDS011;11628;51.072;3.712;2023-04-06T12:14:29;25.48;;;20.42;;
22924;SDS011;11628;51.072;3.712;2023-04-06T12:16:56;28.85;;;21.92;;
22924;SDS011;11628;51.072;3.712;2023-04-06T12:19:25;29.45;;;22.08;;
22924;SDS011;11628;51.072;3.712;2023-04-06T12:21:59;30.13;;;22.05;;
22924;SDS011;11628;51.072;3.712;2023-04-06T12:24:27;31.35;;;23.75;;
22924;SDS011;11628;51.072;3.712;2023-04-06T12:26:53;31.85;;;23.70;;
22924;SDS011;11628;51.072;3.712;2023-04-06T12:29:19;31.40;;;24.60;;
22924;SDS011;11628;51.072;3.712;2023-04-06T12:31:45;31.85;;;24.13;;
22924;SDS011;11628;51.072;3.712;2023-04-06T12:34:11;31.60;;;25.35;;
22924;SDS011;11628;51.072;3.712;2023-04-06T12:36:37;31.67;;;25.60;;
22924;SDS011;11628;51.072;3.712;2023-04-06T12:39:04;33.40;;;26.35;;
22924;SDS011;11628;51.072;3.712;2023-04-06T12:41:30;35.40;;;26.25;;
22924;SDS011;11628;51.072;3.712;2023-04-06T12:43:57;33.90;;;26.05;;
22924;SDS011;11628;51.072;3.712;2023-04-06T12:46:24;32.40;;;25.48;;
22924;SDS011;11628;51.072;3.712;2023-04-06T12:48:51;31.88;;;25.08;;
22924;SDS011;11628;51.072;3.712;2023-04-06T12:51:21;31.70;;;25.35;;
22924;SDS011;11628;51.072;3.712;2023-04-06T12:53:47;32.17;;;25.85;;
22924;SDS011;11628;51.072;3.712;2023-04-06T12:56:14;34.17;;;26.25;;
22924;SDS011;11628;51.072;3.712;2023-04-06T12:58:41;36.28;;;27.40;;
22924;SDS011;11628;51.072;3.712;2023-04-06T13:01:08;31.65;;;26.15;;
22924;SDS011;11628;51.072;3.712;2023-04-06T13:03:34;34.13;;;25.98;;
22924;SDS011;11628;51.072;3.712;2023-04-06T13:06:00;36.15;;;26.92;;
22924;SDS011;11628;51.072;3.712;2023-04-06T13:08:26;34.22;;;25.45;;
22924;SDS011;11628;51.072;3.712;2023-04-06T13:10:55;31.13;;;23.90;;
22924;SDS011;11628;51.072;3.712;2023-04-06T13:13:27;35.47;;;26.83;;
22924;SDS011;11628;51.072;3.712;2023-04-06T13:15:55;34.33;;;27.17;;
22924;SDS011;11628;51.072;3.712;2023-04-06T13:18:26;33.78;;;26.60;;
22924;SDS011;11628;51.072;3.712;2023-04-06T13:20:52;33.33;;;26.50;;
22924;SDS011;11628;51.072;3.712;2023-04-06T13:23:17;33.88;;;26.00;;
22924;SDS011;11628;51.072;3.712;2023-04-06T13:25:45;32.40;;;24.95;;
22924;SDS011;11628;51.072;3.712;2023-04-06T13:28:10;32.90;;;26.35;;
22924;SDS011;11628;51.072;3.712;2023-04-06T13:30:38;34.75;;;27.33;;
22924;SDS011;11628;51.072;3.712;2023-04-06T13:33:04;33.67;;;27.45;;
22924;SDS011;11628;51.072;3.712;2023-04-06T13:35:31;33.97;;;25.75;;
22924;SDS011;11628;51.072;3.712;2023-04-06T13:37:57;32.20;;;25.98;;
22924;SDS011;11628;51.072;3.712;2023-04-06T13:40:23;31.83;;;25.67;;
22924;SDS011;11628;51.072;3.712;2023-04-06T13:42:49;30.55;;;24.63;;
22924;SDS011;11628;51.072;3.712;2023-04-06T13:45:15;32.20;;;25.73;;
22924;SDS011;11628;51.072;3.712;2023-04-06T13:47:41;30.33;;;24.00;;
22924;SDS011;11628;51.072;3.712;2023-04-06T13:50:07;27.85;;;24.10;;
22924;SDS011;11628;51.072;3.712;2023-04-06T13:52:34;31.38;;;25.50;;
22924;SDS011;11628;51.072;3.712;2023-04-06T13:55:01;32.55;;;25.85;;
22924;SDS011;11628;51.072;3.712;2023-04-06T13:57:27;31.13;;;25.85;;
22924;SDS011;11628;51.072;3.712;2023-04-06T14:02:26;34.70;;;26.48;;
22924;SDS011;11628;51.072;3.712;2023-04-06T14:04:55;29.90;;;24.10;;
22924;SDS011;11628;51.072;3.712;2023-04-06T14:07:21;31.25;;;24.30;;
22924;SDS011;11628;51.072;3.712;2023-04-06T14:09:47;34.75;;;25.30;;
22924;SDS011;11628;51.072;3.712;2023-04-06T14:12:12;30.23;;;24.88;;
22924;SDS011;11628;51.072;3.712;2023-04-06T14:14:39;31.95;;;23.35;;
22924;SDS011;11628;51.072;3.712;2023-04-06T14:17:05;31.45;;;24.25;;
22924;SDS011;11628;51.072;3.712;2023-04-06T14:19:31;30.73;;;24.60;;
22924;SDS011;11628;51.072;3.712;2023-04-06T14:21:57;28.83;;;23.15;;
22924;SDS011;11628;51.072;3.712;2023-04-06T14:24:22;32.00;;;24.85;;
22924;SDS011;11628;51.072;3.712;2023-04-06T14:26:48;32.13;;;25.08;;
22924;SDS011;11628;51.072;3.712;2023-04-06T14:29:14;35.95;;;25.38;;
22924;SDS011;11628;51.072;3.712;2023-04-06T14:31:41;34.15;;;24.88;;
22924;SDS011;11628;51.072;3.712;2023-04-06T14:34:06;32.92;;;25.40;;
22924;SDS011;11628;51.072;3.712;2023-04-06T14:36:35;30.98;;;23.88;;